Time;durP1;ratioP1;P1;durP2;ratioP2;P2;SDS_P1;SDS_P2;PMS_P1;PMS_P2;Temp;Humidity;BMP_temperature;BMP_pressure;BME280_temperature;BME280_humidity;BME280_pressure;Samples;Min_cycle;Max_cycle;Signal;HPM_P1;HPM_P2
2023/07/12 00:01:08;;;;;;;;;;;20.40;1.00;;;;;;5095416;28;20011;-72
2023/07/12 00:03:34;;;;;;;;;;;20.40;1.00;;;;;;5094188;28;19924;-72
2023/07/12 00:05:59;;;;;;;;;;;20.30;1.00;;;;;;5094951;28;20015;-72
2023/07/12 00:08:26;;;;;;;;;;;20.30;1.00;;;;;;5098333;28;20021;-72
2023/07/12 00:10:53;;;;;;;;;;;20.30;1.00;;;;;;5095756;28;20427;-72
2023/07/12 00:13:18;;;;;;;;;;;20.30;1.00;;;;;;5092401;28;20409;-72
2023/07/12 00:15:45;;;;;;;;;;;20.30;1.00;;;;;;5093004;28;19928;-72
2023/07/12 00:18:14;;;;;;;;;;;20.30;1.00;;;;;;5096843;28;20382;-72
2023/07/12 00:20:40;;;;;;;;;;;20.20;1.00;;;;;;5094015;28;19931;-72
2023/07/12 00:23:07;;;;;;;;;;;20.20;1.00;;;;;;5097024;28;19923;-72
2023/07/12 00:25:33;;;;;;;;;;;20.20;1.00;;;;;;5093272;28;19924;-72
2023/07/12 00:27:59;;;;;;;;;;;20.10;1.00;;;;;;5096322;28;19924;-72
2023/07/12 00:30:29;;;;;;;;;;;20.10;1.00;;;;;;5093275;28;19928;-72
2023/07/12 00:32:55;;;;;;;;;;;20.00;1.00;;;;;;5098267;28;19951;-72
2023/07/12 00:35:22;;;;;;;;;;;20.00;1.00;;;;;;5093038;28;20382;-72
2023/07/12 00:37:49;;;;;;;;;;;20.00;1.00;;;;;;5095741;28;19932;-72
2023/07/12 00:40:15;;;;;;;;;;;20.00;1.00;;;;;;5088746;28;20057;-72
2023/07/12 00:42:43;;;;;;;;;;;20.00;1.00;;;;;;5095831;28;20437;-72
2023/07/12 00:45:10;;;;;;;;;;;20.00;1.00;;;;;;5070851;28;20302;-72
2023/07/12 00:47:36;;;;;;;;;;;20.00;1.00;;;;;;5095788;28;19924;-72
2023/07/12 00:50:14;;;;;;;;;;;19.90;1.00;;;;;;5099467;28;19924;-72
2023/07/12 00:52:40;;;;;;;;;;;19.90;1.00;;;;;;5097145;28;19925;-71
2023/07/12 00:55:05;;;;;;;;;;;19.90;1.00;;;;;;5084434;28;20383;-72
2023/07/12 00:57:31;;;;;;;;;;;19.80;1.00;;;;;;5087077;28;19931;-72
2023/07/12 01:00:05;;;;;;;;;;;19.80;1.00;;;;;;5087710;28;20386;-72
2023/07/12 01:02:30;;;;;;;;;;;19.80;1.00;;;;;;5085270;28;19932;-72
2023/07/12 01:04:58;;;;;;;;;;;19.80;1.00;;;;;;5096873;28;19924;-72
2023/07/12 01:07:25;;;;;;;;;;;19.80;1.00;;;;;;5091470;28;20309;-72
2023/07/12 01:09:50;;;;;;;;;;;19.80;1.00;;;;;;5098458;28;19931;-72
2023/07/12 01:12:16;;;;;;;;;;;19.70;1.00;;;;;;5095551;28;19928;-72
2023/07/12 01:14:42;;;;;;;;;;;19.70;1.00;;;;;;5096713;28;20267;-72
2023/07/12 01:17:08;;;;;;;;;;;19.70;1.00;;;;;;5093888;28;19924;-72
2023/07/12 01:19:35;;;;;;;;;;;19.70;1.00;;;;;;5090740;28;19931;-72
2023/07/12 01:22:01;;;;;;;;;;;19.70;1.00;;;;;;5101732;28;19924;-72
2023/07/12 01:24:27;;;;;;;;;;;19.60;1.00;;;;;;5097926;28;19931;-72
2023/07/12 01:26:57;;;;;;;;;;;19.60;1.00;;;;;;5077363;28;19934;-72
2023/07/12 01:29:23;;;;;;;;;;;19.50;1.00;;;;;;5100153;28;19924;-72
2023/07/12 01:31:49;;;;;;;;;;;19.50;1.00;;;;;;5099493;28;19925;-72
2023/07/12 01:34:15;;;;;;;;;;;19.50;1.00;;;;;;5092074;28;19924;-72
2023/07/12 01:36:41;;;;;;;;;;;19.40;1.00;;;;;;5091903;28;20005;-72
2023/07/12 01:39:06;;;;;;;;;;;19.40;1.00;;;;;;5092517;28;20054;-72
2023/07/12 01:41:32;;;;;;;;;;;19.50;1.00;;;;;;5107721;28;20278;-72
2023/07/12 01:43:58;;;;;;;;;;;19.40;1.00;;;;;;5112791;28;19924;-72
2023/07/12 01:46:24;;;;;;;;;;;19.40;1.00;;;;;;5111541;28;19975;-73
2023/07/12 01:48:49;;;;;;;;;;;19.40;1.00;;;;;;5110424;28;19977;-73
2023/07/12 01:51:16;;;;;;;;;;;19.40;1.00;;;;;;5109131;28;20347;-72
2023/07/12 01:53:41;;;;;;;;;;;19.40;1.00;;;;;;5111940;28;20304;-72
2023/07/12 01:56:07;;;;;;;;;;;19.40;1.00;;;;;;5107984;28;20007;-72
2023/07/12 01:58:32;;;;;;;;;;;19.30;1.00;;;;;;5108637;28;19993;-72
2023/07/12 02:00:58;;;;;;;;;;;19.30;1.00;;;;;;5105500;28;19999;-73
2023/07/12 02:03:24;;;;;;;;;;;19.30;1.00;;;;;;5100070;28;20011;-73
2023/07/12 02:05:49;;;;;;;;;;;19.30;1.00;;;;;;5105526;28;19932;-73
2023/07/12 02:08:15;;;;;;;;;;;19.20;1.00;;;;;;5097144;28;19923;-72
2023/07/12 02:10:41;;;;;;;;;;;19.20;1.00;;;;;;5096015;28;19932;-72
2023/07/12 02:13:06;;;;;;;;;;;19.20;1.00;;;;;;5100379;28;19960;-72
2023/07/12 02:15:32;;;;;;;;;;;19.20;1.00;;;;;;5100702;28;20007;-72
2023/07/12 02:17:58;;;;;;;;;;;19.10;1.00;;;;;;5101975;28;20453;-72
2023/07/12 02:20:23;;;;;;;;;;;19.10;1.00;;;;;;5101600;28;20040;-72
2023/07/12 02:22:49;;;;;;;;;;;19.10;1.00;;;;;;5099414;28;20673;-72
2023/07/12 02:25:15;;;;;;;;;;;19.10;1.00;;;;;;5102129;28;19957;-72
2023/07/12 02:27:41;;;;;;;;;;;19.10;1.00;;;;;;5099002;28;19932;-72
2023/07/12 02:30:12;;;;;;;;;;;19.10;1.00;;;;;;5101687;28;19924;-72
2023/07/12 02:32:37;;;;;;;;;;;19.00;1.00;;;;;;5090767;28;19939;-72
2023/07/12 02:35:03;;;;;;;;;;;19.00;1.00;;;;;;5090322;28;19924;-72
2023/07/12 02:37:29;;;;;;;;;;;19.00;1.00;;;;;;5098956;28;19931;-73
2023/07/12 02:39:55;;;;;;;;;;;18.90;1.00;;;;;;5100596;28;19924;-72
2023/07/12 02:42:20;;;;;;;;;;;18.90;1.00;;;;;;5097181;28;19924;-72
2023/07/12 02:44:46;;;;;;;;;;;18.90;1.00;;;;;;5099801;28;19932;-72
2023/07/12 02:47:11;;;;;;;;;;;18.90;1.00;;;;;;5097281;28;20405;-72
2023/07/12 02:49:37;;;;;;;;;;;18.80;1.00;;;;;;5100172;28;19928;-72
2023/07/12 02:52:04;;;;;;;;;;;18.80;1.00;;;;;;5078835;28;19928;-72
2023/07/12 02:54:30;;;;;;;;;;;18.80;1.00;;;;;;5089916;28;19931;-72
2023/07/12 02:56:55;;;;;;;;;;;18.80;1.00;;;;;;5096232;28;19924;-72
2023/07/12 02:59:21;;;;;;;;;;;18.70;1.00;;;;;;5097376;28;19932;-72
2023/07/12 03:01:47;;;;;;;;;;;18.70;1.00;;;;;;5091717;28;20428;-72
2023/07/12 03:04:13;;;;;;;;;;;18.70;1.00;;;;;;5096759;28;19928;-72
2023/07/12 03:06:38;;;;;;;;;;;18.60;1.00;;;;;;5094276;28;20056;-72
2023/07/12 03:09:05;;;;;;;;;;;18.60;1.00;;;;;;5097046;28;20415;-72
2023/07/12 03:11:30;;;;;;;;;;;18.60;1.00;;;;;;5100803;28;19924;-72
2023/07/12 03:13:56;;;;;;;;;;;18.60;1.00;;;;;;5100477;28;19973;-72
2023/07/12 03:16:21;;;;;;;;;;;18.60;1.00;;;;;;5098611;28;19924;-72
2023/07/12 03:18:48;;;;;;;;;;;18.60;1.00;;;;;;5101384;28;19947;-72
2023/07/12 03:21:14;;;;;;;;;;;18.60;1.00;;;;;;5099959;28;19932;-72
2023/07/12 03:23:39;;;;;;;;;;;18.50;1.00;;;;;;5099807;28;19951;-72
2023/07/12 03:26:05;;;;;;;;;;;18.50;1.00;;;;;;5098079;28;19928;-72
2023/07/12 03:28:31;;;;;;;;;;;18.50;1.00;;;;;;5100588;28;19925;-72
2023/07/12 03:31:00;;;;;;;;;;;18.50;1.00;;;;;;5098503;28;19924;-72
2023/07/12 03:33:26;;;;;;;;;;;18.50;1.00;;;;;;5099034;27;19928;-72
2023/07/12 03:35:52;;;;;;;;;;;18.50;1.00;;;;;;5098888;28;19924;-72
2023/07/12 03:38:17;;;;;;;;;;;18.50;1.00;;;;;;5098060;28;19939;-71
2023/07/12 03:40:47;;;;;;;;;;;18.50;1.00;;;;;;5098183;28;19927;-72
2023/07/12 03:43:12;;;;;;;;;;;18.40;1.00;;;;;;5097154;28;19971;-72
2023/07/12 03:45:38;;;;;;;;;;;18.40;1.00;;;;;;5097642;28;20008;-72
2023/07/12 03:48:04;;;;;;;;;;;18.40;1.00;;;;;;5095653;28;19975;-72
2023/07/12 03:50:29;;;;;;;;;;;18.40;1.00;;;;;;5094286;28;19924;-72
2023/07/12 03:52:55;;;;;;;;;;;18.40;1.00;;;;;;5095916;28;19966;-72
2023/07/12 03:55:20;;;;;;;;;;;18.40;1.00;;;;;;5098101;28;20225;-72
2023/07/12 03:57:46;;;;;;;;;;;18.30;1.00;;;;;;5096769;28;20427;-72
2023/07/12 04:00:12;;;;;;;;;;;18.30;1.00;;;;;;5096166;28;19931;-72
2023/07/12 04:02:39;;;;;;;;;;;18.30;1.00;;;;;;5091344;28;19924;-72
2023/07/12 04:05:04;;;;;;;;;;;18.30;1.00;;;;;;5096327;28;19924;-72
2023/07/12 04:07:30;;;;;;;;;;;18.30;1.00;;;;;;5091982;28;20365;-72
2023/07/12 04:09:55;;;;;;;;;;;18.30;1.00;;;;;;5088489;28;19931;-72
2023/07/12 04:12:21;;;;;;;;;;;18.30;1.00;;;;;;5097316;28;19947;-72
2023/07/12 04:14:46;;;;;;;;;;;18.30;1.00;;;;;;5094500;28;20270;-72
2023/07/12 04:17:12;;;;;;;;;;;18.30;1.00;;;;;;5092628;28;19971;-72
2023/07/12 04:19:37;;;;;;;;;;;18.30;1.00;;;;;;5101324;28;20014;-72
2023/07/12 04:22:03;;;;;;;;;;;18.30;1.00;;;;;;5091928;28;20014;-72
2023/07/12 04:24:29;;;;;;;;;;;18.30;1.00;;;;;;5098544;28;19927;-72
2023/07/12 04:26:54;;;;;;;;;;;18.30;1.00;;;;;;5097337;28;20377;-72
2023/07/12 04:29:20;;;;;;;;;;;18.30;1.00;;;;;;5095251;28;19932;-72
2023/07/12 04:31:45;;;;;;;;;;;18.30;1.00;;;;;;5091596;28;19954;-72
2023/07/12 04:34:11;;;;;;;;;;;18.30;1.00;;;;;;5089977;28;19930;-72
2023/07/12 04:36:36;;;;;;;;;;;18.30;1.40;;;;;;5090984;28;19928;-72
2023/07/12 04:39:02;;;;;;;;;;;18.30;1.00;;;;;;5095298;28;20346;-72
2023/07/12 04:41:27;;;;;;;;;;;18.20;1.00;;;;;;5078507;28;20046;-72
2023/07/12 04:43:53;;;;;;;;;;;18.20;1.00;;;;;;5093915;28;19977;-72
2023/07/12 04:46:18;;;;;;;;;;;18.20;1.00;;;;;;5095311;28;19947;-72
2023/07/12 04:48:44;;;;;;;;;;;18.20;1.80;;;;;;5089322;28;20293;-72
2023/07/12 04:51:09;;;;;;;;;;;18.20;1.40;;;;;;5093788;28;20451;-72
2023/07/12 04:53:36;;;;;;;;;;;18.20;4.00;;;;;;5093722;28;19924;-72
2023/07/12 04:56:01;;;;;;;;;;;18.20;2.50;;;;;;5094472;28;19924;-72
2023/07/12 04:58:27;;;;;;;;;;;18.20;4.40;;;;;;5092702;28;19931;-72
2023/07/12 05:00:53;;;;;;;;;;;18.30;7.40;;;;;;5096164;28;20444;-72
2023/07/12 05:03:18;;;;;;;;;;;18.30;10.10;;;;;;5099066;28;19932;-72
2023/07/12 05:05:44;;;;;;;;;;;18.30;6.90;;;;;;5099826;28;19935;-72
2023/07/12 05:08:10;;;;;;;;;;;18.30;6.50;;;;;;5095093;28;19931;-72
2023/07/12 05:10:36;;;;;;;;;;;18.20;4.90;;;;;;5105828;28;19924;-72
2023/07/12 05:13:02;;;;;;;;;;;18.20;2.30;;;;;;5102712;28;19924;-72
2023/07/12 05:15:27;;;;;;;;;;;18.20;3.60;;;;;;5104046;28;19957;-71
2023/07/12 05:17:53;;;;;;;;;;;18.20;3.10;;;;;;5103472;28;19924;-71
2023/07/12 05:20:19;;;;;;;;;;;18.10;4.00;;;;;;5085741;28;20359;-71
2023/07/12 05:22:47;;;;;;;;;;;18.10;6.50;;;;;;5101022;28;19924;-71
2023/07/12 05:25:12;;;;;;;;;;;18.20;5.90;;;;;;5103792;28;19924;-71
2023/07/12 05:27:39;;;;;;;;;;;18.20;7.30;;;;;;5100801;28;19935;-70
2023/07/12 05:30:04;;;;;;;;;;;18.30;7.30;;;;;;5092309;28;19924;-71
2023/07/12 05:32:30;;;;;;;;;;;18.30;6.30;;;;;;5095983;28;19928;-71
2023/07/12 05:34:55;;;;;;;;;;;18.40;6.50;;;;;;5101530;28;20010;-72
2023/07/12 05:37:22;;;;;;;;;;;18.40;7.40;;;;;;5083316;28;19924;-72
2023/07/12 05:39:48;;;;;;;;;;;18.40;5.20;;;;;;5103485;28;19924;-72
2023/07/12 05:42:13;;;;;;;;;;;18.50;3.90;;;;;;5100375;28;19993;-72
2023/07/12 05:44:39;;;;;;;;;;;18.50;6.60;;;;;;5084089;28;20421;-72
2023/07/12 05:47:05;;;;;;;;;;;18.50;10.50;;;;;;5075962;28;19977;-72
2023/07/12 05:49:30;;;;;;;;;;;18.50;7.30;;;;;;5084301;28;19930;-72
2023/07/12 05:51:56;;;;;;;;;;;18.50;9.00;;;;;;5098922;28;20810;-73
2023/07/12 05:54:22;;;;;;;;;;;18.50;8.30;;;;;;5101155;28;20033;-73
2023/07/12 05:56:47;;;;;;;;;;;18.50;5.60;;;;;;5098329;28;19978;-72
2023/07/12 05:59:13;;;;;;;;;;;18.50;6.10;;;;;;5100955;28;20010;-73
2023/07/12 06:01:39;;;;;;;;;;;18.50;6.00;;;;;;5092221;28;20026;-72
2023/07/12 06:04:07;;;;;;;;;;;18.50;7.10;;;;;;5100842;28;20018;-73
2023/07/12 06:06:32;;;;;;;;;;;18.50;4.30;;;;;;5096363;28;19954;-73
2023/07/12 06:08:58;;;;;;;;;;;18.60;3.00;;;;;;5099749;28;19924;-73
2023/07/12 06:11:23;;;;;;;;;;;18.70;7.60;;;;;;5093249;28;19924;-73
2023/07/12 06:13:49;;;;;;;;;;;18.80;7.00;;;;;;5085397;28;19935;-73
2023/07/12 06:16:15;;;;;;;;;;;18.80;1.00;;;;;;5074307;28;20016;-73
2023/07/12 06:18:40;;;;;;;;;;;18.80;1.00;;;;;;5081227;28;19930;-73
2023/07/12 06:21:09;;;;;;;;;;;18.80;1.00;;;;;;5094636;28;19947;-73
2023/07/12 06:23:35;;;;;;;;;;;18.80;1.00;;;;;;5102776;28;19932;-73
2023/07/12 06:26:01;;;;;;;;;;;18.80;1.00;;;;;;5100699;28;19945;-73
2023/07/12 06:28:27;;;;;;;;;;;18.80;1.00;;;;;;5102720;28;20473;-72
2023/07/12 06:30:53;;;;;;;;;;;18.70;1.00;;;;;;5101347;28;20280;-73
2023/07/12 06:33:19;;;;;;;;;;;18.60;1.00;;;;;;5093953;28;19935;-73
2023/07/12 06:35:45;;;;;;;;;;;18.70;1.00;;;;;;5101102;28;19923;-73
2023/07/12 06:38:11;;;;;;;;;;;18.60;1.00;;;;;;5102567;28;19939;-73
2023/07/12 06:40:37;;;;;;;;;;;18.60;1.00;;;;;;5082454;28;20481;-73
2023/07/12 06:43:03;;;;;;;;;;;18.70;1.00;;;;;;5100209;28;19928;-73
2023/07/12 06:45:28;;;;;;;;;;;18.70;1.00;;;;;;5098760;28;19924;-73
2023/07/12 06:47:54;;;;;;;;;;;18.80;5.00;;;;;;5099345;28;19931;-73
2023/07/12 06:50:19;;;;;;;;;;;18.90;5.10;;;;;;5092307;28;19931;-73
2023/07/12 06:52:45;;;;;;;;;;;19.00;4.60;;;;;;5093405;28;19932;-73
2023/07/12 06:55:11;;;;;;;;;;;19.20;6.70;;;;;;5094503;28;20336;-73
2023/07/12 06:57:36;;;;;;;;;;;19.40;7.20;;;;;;5095955;28;19985;-73
2023/07/12 07:00:04;;;;;;;;;;;19.50;1.00;;;;;;5094675;28;19924;-73
2023/07/12 07:02:30;;;;;;;;;;;19.50;1.00;;;;;;5099294;28;20385;-73
2023/07/12 07:04:55;;;;;;;;;;;19.50;1.00;;;;;;5096195;28;19924;-73
2023/07/12 07:07:21;;;;;;;;;;;19.50;1.00;;;;;;5093949;28;19924;-73
2023/07/12 07:09:46;;;;;;;;;;;19.50;1.00;;;;;;5101765;28;20465;-73
2023/07/12 07:12:12;;;;;;;;;;;19.50;1.00;;;;;;5101277;28;20311;-73
2023/07/12 07:14:39;;;;;;;;;;;19.60;1.00;;;;;;5100342;28;20662;-73
2023/07/12 07:17:07;;;;;;;;;;;19.70;1.00;;;;;;5100561;28;19969;-73
2023/07/12 07:19:32;;;;;;;;;;;19.80;1.00;;;;;;5082704;28;19931;-73
2023/07/12 07:21:58;;;;;;;;;;;19.80;1.00;;;;;;5084201;28;20290;-73
2023/07/12 07:24:23;;;;;;;;;;;19.80;1.00;;;;;;5099123;28;20408;-73
2023/07/12 07:26:49;;;;;;;;;;;19.80;1.00;;;;;;5101859;28;19928;-73
2023/07/12 07:29:15;;;;;;;;;;;20.00;1.00;;;;;;5098107;28;20406;-73
2023/07/12 07:31:40;;;;;;;;;;;20.10;1.00;;;;;;5083540;28;19972;-73
2023/07/12 07:34:06;;;;;;;;;;;20.10;1.00;;;;;;5098304;28;19924;-73
2023/07/12 07:36:31;;;;;;;;;;;20.10;1.00;;;;;;5100106;28;20425;-73
2023/07/12 07:38:57;;;;;;;;;;;20.10;1.00;;;;;;5097214;28;19931;-73
2023/07/12 07:41:23;;;;;;;;;;;20.10;1.00;;;;;;5095108;28;19935;-73
2023/07/12 07:43:49;;;;;;;;;;;20.20;1.00;;;;;;5097708;28;19924;-73
2023/07/12 07:46:14;;;;;;;;;;;20.30;1.00;;;;;;5098861;28;19949;-73
2023/07/12 07:48:40;;;;;;;;;;;20.40;1.00;;;;;;5097764;28;19924;-73
2023/07/12 07:51:09;;;;;;;;;;;20.50;1.00;;;;;;5099586;28;19924;-73
2023/07/12 07:53:35;;;;;;;;;;;20.60;1.00;;;;;;5095930;28;20065;-73
2023/07/12 07:56:00;;;;;;;;;;;20.60;99.90;;;;;;5081153;28;20390;-73
2023/07/12 07:58:26;;;;;;;;;;;20.50;99.90;;;;;;5096052;28;19973;-73
2023/07/12 08:00:52;;;;;;;;;;;20.50;99.90;;;;;;5098234;28;19965;-73
2023/07/12 08:03:17;;;;;;;;;;;20.30;99.90;;;;;;5095171;28;19928;-73
2023/07/12 08:05:43;;;;;;;;;;;20.40;99.90;;;;;;5094894;28;19927;-73
2023/07/12 08:08:09;;;;;;;;;;;20.60;99.90;;;;;;5088228;28;19931;-73
2023/07/12 08:10:35;;;;;;;;;;;20.90;99.90;;;;;;5102329;28;19931;-73
2023/07/12 08:13:01;;;;;;;;;;;21.00;99.90;;;;;;5098279;28;19951;-73
2023/07/12 08:15:27;;;;;;;;;;;20.90;99.90;;;;;;5092450;28;19977;-73
2023/07/12 08:17:53;;;;;;;;;;;20.70;99.90;;;;;;5097426;28;19963;-73
2023/07/12 08:20:18;;;;;;;;;;;20.70;99.90;;;;;;5099225;28;19953;-73
2023/07/12 08:22:44;;;;;;;;;;;20.60;99.90;;;;;;5098462;28;19924;-73
2023/07/12 08:25:09;;;;;;;;;;;20.60;99.90;;;;;;5098577;28;21270;-73
2023/07/12 08:27:35;;;;;;;;;;;20.50;99.90;;;;;;5095964;28;19931;-72
2023/07/12 08:30:01;;;;;;;;;;;20.40;99.90;;;;;;5097517;28;20304;-73
2023/07/12 08:32:30;;;;;;;;;;;20.30;99.90;;;;;;5092946;28;19931;-72
2023/07/12 08:34:56;;;;;;;;;;;20.00;99.90;;;;;;5089777;28;20362;-72
2023/07/12 08:37:22;;;;;;;;;;;19.80;1.00;;;;;;5094400;28;19947;-72
2023/07/12 08:39:48;;;;;;;;;;;19.60;1.00;;;;;;5094023;28;21323;-72
2023/07/12 08:42:16;;;;;;;;;;;19.50;1.00;;;;;;5094329;28;19978;-72
2023/07/12 08:44:42;;;;;;;;;;;19.40;1.00;;;;;;5097667;28;20298;-72
2023/07/12 08:47:14;;;;;;;;;;;19.50;1.00;;;;;;5093098;28;19931;-72
2023/07/12 08:49:40;;;;;;;;;;;19.60;1.00;;;;;;5095186;28;19928;-72
2023/07/12 08:52:10;;;;;;;;;;;19.70;1.00;;;;;;5094158;28;19924;-72
2023/07/12 08:54:36;;;;;;;;;;;19.80;1.00;;;;;;5093252;28;19931;-73
2023/07/12 08:57:10;;;;;;;;;;;20.00;1.00;;;;;;5091545;28;19924;-73
2023/07/12 08:59:36;;;;;;;;;;;20.10;1.00;;;;;;5092059;28;19924;-72
2023/07/12 09:02:02;;;;;;;;;;;20.20;1.00;;;;;;5090122;28;19931;-73
2023/07/12 09:04:31;;;;;;;;;;;20.20;1.00;;;;;;5091100;28;19931;-72
2023/07/12 09:06:57;;;;;;;;;;;20.30;1.00;;;;;;5090286;28;20342;-73
2023/07/12 09:09:23;;;;;;;;;;;20.30;1.00;;;;;;5070864;28;19935;-72
2023/07/12 09:11:49;;;;;;;;;;;20.30;1.00;;;;;;5089130;28;19928;-73
2023/07/12 09:14:18;;;;;;;;;;;20.30;1.00;;;;;;5094632;28;19938;-73
2023/07/12 09:16:45;;;;;;;;;;;20.50;1.00;;;;;;5088239;28;19932;-72
2023/07/12 09:19:23;;;;;;;;;;;20.60;1.00;;;;;;5095336;28;19924;-73
2023/07/12 09:21:50;;;;;;;;;;;20.80;99.90;;;;;;5102357;28;19963;-73
2023/07/12 09:24:23;;;;;;;;;;;20.90;99.90;;;;;;5099015;28;19931;-73
2023/07/12 09:26:50;;;;;;;;;;;20.90;99.90;;;;;;5091661;28;19931;-73
2023/07/12 09:29:19;;;;;;;;;;;20.80;99.90;;;;;;5099577;28;19949;-73
2023/07/12 09:31:45;;;;;;;;;;;20.70;99.90;;;;;;5097471;28;19981;-72
2023/07/12 09:34:16;;;;;;;;;;;20.70;99.90;;;;;;5096733;28;19974;-73
2023/07/12 09:36:42;;;;;;;;;;;20.70;99.90;;;;;;5097438;28;20597;-73
2023/07/12 09:39:12;;;;;;;;;;;20.70;99.90;;;;;;5097776;28;19928;-72
2023/07/12 09:41:47;;;;;;;;;;;20.70;99.90;;;;;;5096245;28;20318;-72
2023/07/12 09:44:14;;;;;;;;;;;20.80;99.90;;;;;;5093888;28;19932;-72
2023/07/12 09:46:42;;;;;;;;;;;20.90;99.90;;;;;;5095309;28;19936;-72
2023/07/12 09:49:08;;;;;;;;;;;21.10;99.90;;;;;;5086377;28;19951;-73
2023/07/12 09:51:37;;;;;;;;;;;21.40;99.90;;;;;;5096829;28;20041;-73
2023/07/12 09:54:26;;;;;;;;;;;21.80;99.90;;;;;;5095602;28;19928;-73
2023/07/12 09:56:53;;;;;;;;;;;22.20;99.90;;;;;;5095407;28;20026;-73
2023/07/12 09:59:31;;;;;;;;;;;22.50;16.90;;;;;;5098800;28;19932;-73
2023/07/12 10:02:01;;;;;;;;;;;22.60;99.40;;;;;;5102034;28;19949;-73
2023/07/12 10:04:35;;;;;;;;;;;22.40;99.90;;;;;;5074610;28;19924;-73
2023/07/12 10:07:05;;;;;;;;;;;22.20;99.90;;;;;;5096927;28;19975;-73
2023/07/12 10:09:33;;;;;;;;;;;22.00;99.90;;;;;;5099908;28;20351;-73
2023/07/12 10:12:03;;;;;;;;;;;21.90;1.00;;;;;;5105061;28;19924;-73
2023/07/12 10:14:34;;;;;;;;;;;21.70;31.90;;;;;;5092929;28;19959;-73
2023/07/12 10:17:00;;;;;;;;;;;21.60;99.90;;;;;;5097347;28;19923;-73
2023/07/12 10:19:34;;;;;;;;;;;21.50;1.00;;;;;;5098790;28;19925;-73
2023/07/12 10:22:02;;;;;;;;;;;21.50;34.10;;;;;;5100926;28;19932;-74
2023/07/12 10:24:35;;;;;;;;;;;21.90;99.90;;;;;;5097977;28;19932;-73
2023/07/12 10:27:02;;;;;;;;;;;22.60;1.00;;;;;;5096431;28;19924;-73
2023/07/12 10:29:50;;;;;;;;;;;23.10;4.10;;;;;;5100779;28;19928;-74
2023/07/12 10:32:23;;;;;;;;;;;23.30;1.00;;;;;;5090934;28;19924;-73
2023/07/12 10:34:55;;;;;;;;;;;23.10;99.90;;;;;;5101501;28;19923;-73
2023/07/12 10:37:30;;;;;;;;;;;22.80;1.00;;;;;;5096273;28;20412;-73
2023/07/12 10:39:56;;;;;;;;;;;22.90;77.10;;;;;;5096013;28;19924;-73
2023/07/12 10:42:21;;;;;;;;;;;23.40;99.90;;;;;;5094595;28;19930;-73
2023/07/12 10:44:51;;;;;;;;;;;23.80;1.00;;;;;;5098970;28;19935;-73
2023/07/12 10:47:17;;;;;;;;;;;24.40;99.90;;;;;;5082563;28;19931;-74
2023/07/12 10:49:53;;;;;;;;;;;24.60;99.90;;;;;;5091980;28;19924;-74
2023/07/12 10:52:26;;;;;;;;;;;24.60;99.90;;;;;;5099616;28;19977;-74
2023/07/12 10:55:06;;;;;;;;;;;24.20;51.50;;;;;;5095001;28;19931;-73
2023/07/12 10:57:51;;;;;;;;;;;23.80;17.20;;;;;;5084623;28;19981;-73
2023/07/12 11:00:16;;;;;;;;;;;23.40;1.00;;;;;;5095488;28;19960;-73
2023/07/12 11:02:44;;;;;;;;;;;23.30;1.00;;;;;;5078716;28;19978;-73
2023/07/12 11:05:28;;;;;;;;;;;23.40;1.00;;;;;;5096103;28;20347;-73
2023/07/12 11:07:54;;;;;;;;;;;23.90;13.50;;;;;;5085911;28;20015;-73
2023/07/12 11:10:23;;;;;;;;;;;24.00;1.00;;;;;;5104093;28;20002;-74
2023/07/12 11:12:53;;;;;;;;;;;24.00;1.00;;;;;;5088443;28;19936;-73
2023/07/12 11:15:24;;;;;;;;;;;24.00;1.00;;;;;;5094763;28;19927;-73
2023/07/12 11:18:03;;;;;;;;;;;23.90;1.00;;;;;;5100545;28;19924;-73
2023/07/12 11:20:32;;;;;;;;;;;23.60;1.00;;;;;;5100187;28;20302;-73
2023/07/12 11:22:59;;;;;;;;;;;23.40;99.90;;;;;;5101786;28;19924;-73
2023/07/12 11:25:25;;;;;;;;;;;23.40;99.90;;;;;;5097593;28;19939;-73
2023/07/12 11:27:55;;;;;;;;;;;23.70;1.00;;;;;;5096606;28;19924;-73
2023/07/12 11:30:24;;;;;;;;;;;24.00;99.90;;;;;;5089367;28;19932;-73
2023/07/12 11:32:53;;;;;;;;;;;24.10;99.90;;;;;;5100559;28;20294;-73
2023/07/12 11:35:21;;;;;;;;;;;24.00;99.90;;;;;;5096728;28;20275;-73
2023/07/12 11:37:47;;;;;;;;;;;23.80;99.90;;;;;;5101876;28;20020;-73
2023/07/12 11:40:14;;;;;;;;;;;23.60;99.90;;;;;;5095326;28;19924;-73
2023/07/12 11:42:39;;;;;;;;;;;23.40;99.90;;;;;;5094925;28;20469;-73
2023/07/12 11:45:12;;;;;;;;;;;23.40;99.90;;;;;;5089751;28;19931;-73
2023/07/12 11:47:42;;;;;;;;;;;23.70;99.90;;;;;;5099550;28;19946;-73
2023/07/12 11:50:10;;;;;;;;;;;24.10;99.90;;;;;;5087529;28;20429;-73
2023/07/12 11:52:36;;;;;;;;;;;24.50;99.90;;;;;;5094852;28;19924;-73
2023/07/12 11:55:04;;;;;;;;;;;25.00;99.90;;;;;;5095382;28;20390;-73
2023/07/12 11:57:38;;;;;;;;;;;25.40;99.90;;;;;;5099119;28;20010;-74
2023/07/12 12:00:13;;;;;;;;;;;25.50;99.90;;;;;;5097001;28;20065;-73
2023/07/12 12:02:41;;;;;;;;;;;25.30;99.90;;;;;;5097739;28;19932;-73
2023/07/12 12:05:13;;;;;;;;;;;25.00;99.90;;;;;;5098873;28;20397;-73
2023/07/12 12:07:39;;;;;;;;;;;25.10;99.90;;;;;;5090239;28;19935;-73
2023/07/12 12:10:06;;;;;;;;;;;25.20;99.90;;;;;;5100572;28;20301;-73
2023/07/12 12:12:32;;;;;;;;;;;25.20;99.90;;;;;;5096572;28;20031;-73
2023/07/12 12:14:58;;;;;;;;;;;25.10;99.90;;;;;;5092560;28;19931;-73
2023/07/12 12:17:26;;;;;;;;;;;25.10;99.90;;;;;;5096386;28;20397;-73
2023/07/12 12:20:04;;;;;;;;;;;25.20;99.90;;;;;;5094315;28;19924;-73
2023/07/12 12:22:29;;;;;;;;;;;25.30;99.90;;;;;;5095352;28;19930;-74
2023/07/12 12:24:56;;;;;;;;;;;25.40;99.90;;;;;;5101269;28;19924;-74
2023/07/12 12:27:43;;;;;;;;;;;25.60;99.90;;;;;;5087087;28;19924;-74
2023/07/12 12:30:33;;;;;;;;;;;25.80;99.90;;;;;;5094886;28;21577;-74
2023/07/12 12:33:03;;;;;;;;;;;25.70;99.90;;;;;;5094162;28;19969;-74
2023/07/12 12:35:29;;;;;;;;;;;25.40;99.90;;;;;;5088241;28;19981;-74
2023/07/12 12:37:55;;;;;;;;;;;25.30;99.90;;;;;;5099707;28;19928;-74
2023/07/12 12:40:21;;;;;;;;;;;25.30;99.90;;;;;;5094953;28;19931;-74
2023/07/12 12:42:51;;;;;;;;;;;25.40;99.90;;;;;;5098220;28;19923;-74
2023/07/12 12:45:16;;;;;;;;;;;25.80;99.90;;;;;;5071580;28;19978;-74
2023/07/12 12:47:43;;;;;;;;;;;25.90;99.90;;;;;;5098049;28;19967;-74
2023/07/12 12:50:15;;;;;;;;;;;25.90;99.90;;;;;;5076277;28;19973;-74
2023/07/12 12:52:41;;;;;;;;;;;26.10;99.90;;;;;;5094090;28;19959;-74
2023/07/12 12:55:08;;;;;;;;;;;26.50;99.90;;;;;;5094455;28;20457;-74
2023/07/12 12:57:34;;;;;;;;;;;26.60;99.90;;;;;;5093446;28;19924;-74
2023/07/12 13:00:00;;;;;;;;;;;26.50;99.90;;;;;;5094864;28;20334;-74
2023/07/12 13:02:26;;;;;;;;;;;26.30;99.90;;;;;;5079478;28;20006;-74
2023/07/12 13:04:52;;;;;;;;;;;26.00;99.90;;;;;;5094326;28;19925;-74
2023/07/12 13:07:20;;;;;;;;;;;25.70;99.90;;;;;;5092434;28;19932;-74
2023/07/12 13:09:45;;;;;;;;;;;25.50;99.90;;;;;;5099403;28;20010;-74
2023/07/12 13:12:19;;;;;;;;;;;25.30;99.90;;;;;;5094574;28;20018;-73
2023/07/12 13:14:45;;;;;;;;;;;25.10;99.90;;;;;;5099216;28;19924;-73
2023/07/12 13:17:14;;;;;;;;;;;25.10;99.90;;;;;;5098564;28;19931;-73
2023/07/12 13:19:39;;;;;;;;;;;25.60;99.90;;;;;;5101095;28;19936;-73
2023/07/12 13:22:08;;;;;;;;;;;25.70;99.90;;;;;;5102053;28;19931;-73
2023/07/12 13:24:34;;;;;;;;;;;25.80;99.90;;;;;;5105415;28;19931;-73
2023/07/12 13:26:59;;;;;;;;;;;25.80;99.90;;;;;;5102522;28;19924;-73
2023/07/12 13:29:25;;;;;;;;;;;25.90;99.90;;;;;;5099061;28;19931;-74
2023/07/12 13:31:50;;;;;;;;;;;26.00;99.90;;;;;;5102620;28;19970;-74
2023/07/12 13:34:16;;;;;;;;;;;26.10;99.90;;;;;;5100908;28;19932;-74
2023/07/12 13:36:45;;;;;;;;;;;26.30;99.90;;;;;;5100119;28;19931;-74
2023/07/12 13:39:16;;;;;;;;;;;26.30;99.90;;;;;;5103833;28;19959;-74
2023/07/12 13:41:42;;;;;;;;;;;26.50;99.90;;;;;;5100264;28;19924;-74
2023/07/12 13:44:09;;;;;;;;;;;26.40;99.90;;;;;;5098371;28;20424;-74
2023/07/12 13:46:35;;;;;;;;;;;26.10;99.90;;;;;;5098005;28;19924;-74
2023/07/12 13:49:03;;;;;;;;;;;26.20;99.90;;;;;;5103099;28;19924;-74
2023/07/12 13:51:29;;;;;;;;;;;26.40;99.90;;;;;;5081574;28;19975;-74
2023/07/12 13:53:54;;;;;;;;;;;26.40;99.90;;;;;;5103078;28;19959;-74
2023/07/12 13:56:19;;;;;;;;;;;26.20;99.90;;;;;;5093725;28;19924;-74
2023/07/12 13:58:45;;;;;;;;;;;26.40;99.90;;;;;;5096003;28;20411;-74
2023/07/12 14:01:12;;;;;;;;;;;26.70;99.90;;;;;;5099173;28;19973;-74
2023/07/12 14:03:37;;;;;;;;;;;27.00;99.90;;;;;;5101585;28;20306;-73
2023/07/12 14:06:06;;;;;;;;;;;27.30;99.90;;;;;;5098875;28;19938;-73
2023/07/12 14:08:32;;;;;;;;;;;27.50;99.90;;;;;;5098709;28;20367;-73
2023/07/12 14:10:57;;;;;;;;;;;27.80;99.90;;;;;;5101726;27;19928;-74
2023/07/12 14:13:23;;;;;;;;;;;27.70;99.90;;;;;;5105301;28;20002;-74
2023/07/12 14:15:49;;;;;;;;;;;27.80;99.90;;;;;;5101343;28;19924;-74
2023/07/12 14:18:14;;;;;;;;;;;28.00;99.90;;;;;;5105034;28;19924;-73
2023/07/12 14:20:40;;;;;;;;;;;27.90;99.90;;;;;;5099489;28;19924;-73
2023/07/12 14:23:12;;;;;;;;;;;27.70;99.30;;;;;;5085256;28;19963;-73
2023/07/12 14:25:37;;;;;;;;;;;27.70;99.90;;;;;;5091973;28;19928;-73